sensor_id;sensor_type;location;lat;lon;timestamp;pressure;altitude;pressure_sealevel;temperature;humidity
70916;BME280;58557;50.982;-3.222;2023-02-16T00:00:19;101487.16;;;12.67;51.24
70916;BME280;58557;50.982;-3.222;2023-02-16T00:02:42;101478.17;;;13.38;51.18
70916;BME280;58557;50.982;-3.222;2023-02-16T00:05:21;101479.34;;;12.80;51.97
70916;BME280;58557;50.982;-3.222;2023-02-16T00:07:33;101476.15;;;12.14;54.56
70916;BME280;58557;50.982;-3.222;2023-02-16T00:09:59;101472.72;;;11.79;54.78
70916;BME280;58557;50.982;-3.222;2023-02-16T00:12:25;101460.93;;;10.96;59.30
70916;BME280;58557;50.982;-3.222;2023-02-16T00:14:50;101461.73;;;10.80;61.22
70916;BME280;58557;50.982;-3.222;2023-02-16T00:17:16;101455.65;;;10.91;61.65
70916;BME280;58557;50.982;-3.222;2023-02-16T00:19:41;101453.85;;;11.63;57.79
70916;BME280;58557;50.982;-3.222;2023-02-16T00:22:07;101448.24;;;11.46;58.85
70916;BME280;58557;50.982;-3.222;2023-02-16T00:24:33;101443.97;;;11.46;59.08
70916;BME280;58557;50.982;-3.222;2023-02-16T00:26:59;101439.93;;;11.53;59.54
70916;BME280;58557;50.982;-3.222;2023-02-16T00:29:26;101433.56;;;11.05;60.33
70916;BME280;58557;50.982;-3.222;2023-02-16T00:31:49;101426.75;;;11.37;60.69
70916;BME280;58557;50.982;-3.222;2023-02-16T00:34:29;101416.78;;;10.28;63.52
70916;BME280;58557;50.982;-3.222;2023-02-16T00:36:40;101412.87;;;10.59;62.70
70916;BME280;58557;50.982;-3.222;2023-02-16T00:39:06;101408.32;;;10.88;62.94
70916;BME280;58557;50.982;-3.222;2023-02-16T00:41:31;101402.84;;;10.57;63.24
70916;BME280;58557;50.982;-3.222;2023-02-16T00:43:57;101393.70;;;10.12;65.94
70916;BME280;58557;50.982;-3.222;2023-02-16T00:46:23;101388.37;;;10.19;65.00
70916;BME280;58557;50.982;-3.222;2023-02-16T00:48:49;101384.24;;;10.84;64.13
70916;BME280;58557;50.982;-3.222;2023-02-16T00:51:14;101380.99;;;9.77;66.46
70916;BME280;58557;50.982;-3.222;2023-02-16T00:53:40;101382.19;;;9.69;68.72
70916;BME280;58557;50.982;-3.222;2023-02-16T00:56:08;101382.29;;;9.72;69.15
70916;BME280;58557;50.982;-3.222;2023-02-16T00:58:31;101383.45;;;9.80;67.42
70916;BME280;58557;50.982;-3.222;2023-02-16T01:01:01;101387.94;;;8.81;71.40
70916;BME280;58557;50.982;-3.222;2023-02-16T01:03:24;101382.57;;;9.62;69.31
70916;BME280;58557;50.982;-3.222;2023-02-16T01:05:47;101374.12;;;9.62;67.35
70916;BME280;58557;50.982;-3.222;2023-02-16T01:08:14;101374.61;;;9.79;66.51
70916;BME280;58557;50.982;-3.222;2023-02-16T01:10:38;101369.21;;;9.42;66.94
70916;BME280;58557;50.982;-3.222;2023-02-16T01:13:04;101365.35;;;10.02;65.55
70916;BME280;58557;50.982;-3.222;2023-02-16T01:15:29;101371.03;;;10.58;64.01
70916;BME280;58557;50.982;-3.222;2023-02-16T01:17:55;101368.69;;;10.65;62.21
70916;BME280;58557;50.982;-3.222;2023-02-16T01:20:22;101367.91;;;9.22;66.61
70916;BME280;58557;50.982;-3.222;2023-02-16T01:22:45;101364.15;;;9.51;66.78
70916;BME280;58557;50.982;-3.222;2023-02-16T01:25:11;101360.18;;;9.34;68.88
70916;BME280;58557;50.982;-3.222;2023-02-16T01:27:37;101357.10;;;9.48;68.55
70916;BME280;58557;50.982;-3.222;2023-02-16T01:30:02;101350.21;;;9.70;67.19
70916;BME280;58557;50.982;-3.222;2023-02-16T01:32:28;101354.16;;;10.01;66.48
70916;BME280;58557;50.982;-3.222;2023-02-16T01:34:53;101362.48;;;9.43;68.86
70916;BME280;58557;50.982;-3.222;2023-02-16T01:37:19;101362.34;;;10.53;65.72
70916;BME280;58557;50.982;-3.222;2023-02-16T01:39:44;101365.90;;;9.43;67.62
70916;BME280;58557;50.982;-3.222;2023-02-16T01:42:18;101357.50;;;9.12;70.67
70916;BME280;58557;50.982;-3.222;2023-02-16T01:44:40;101349.40;;;8.45;72.79
70916;BME280;58557;50.982;-3.222;2023-02-16T01:47:05;101341.95;;;8.21;75.04
70916;BME280;58557;50.982;-3.222;2023-02-16T01:49:27;101337.64;;;9.09;72.04
70916;BME280;58557;50.982;-3.222;2023-02-16T01:51:56;101337.39;;;8.77;73.44
70916;BME280;58557;50.982;-3.222;2023-02-16T01:54:28;101334.30;;;8.84;74.36
70916;BME280;58557;50.982;-3.222;2023-02-16T01:56:47;101334.31;;;9.27;73.87
70916;BME280;58557;50.982;-3.222;2023-02-16T01:59:15;101333.98;;;9.06;75.10
70916;BME280;58557;50.982;-3.222;2023-02-16T02:01:39;101325.30;;;8.66;76.13
70916;BME280;58557;50.982;-3.222;2023-02-16T02:03:59;101322.59;;;8.91;74.04
70916;BME280;58557;50.982;-3.222;2023-02-16T02:06:31;101319.21;;;9.19;73.24
70916;BME280;58557;50.982;-3.222;2023-02-16T02:08:55;101313.55;;;7.99;75.48
70916;BME280;58557;50.982;-3.222;2023-02-16T02:11:21;101313.73;;;8.59;74.20
70916;BME280;58557;50.982;-3.222;2023-02-16T02:13:45;101307.52;;;8.54;74.84
70916;BME280;58557;50.982;-3.222;2023-02-16T02:16:07;101301.88;;;9.73;70.41
70916;BME280;58557;50.982;-3.222;2023-02-16T02:18:32;101292.50;;;9.30;70.95
70916;BME280;58557;50.982;-3.222;2023-02-16T02:21:08;101282.55;;;9.31;69.37
70916;BME280;58557;50.982;-3.222;2023-02-16T02:23:37;101277.23;;;9.96;66.01
70916;BME280;58557;50.982;-3.222;2023-02-16T02:28:19;101280.89;;;9.15;69.47
70916;BME280;58557;50.982;-3.222;2023-02-16T02:30:46;101271.97;;;8.81;69.96
70916;BME280;58557;50.982;-3.222;2023-02-16T02:33:16;101264.23;;;9.09;68.58
70916;BME280;58557;50.982;-3.222;2023-02-16T02:35:39;101259.12;;;8.57;70.90
70916;BME280;58557;50.982;-3.222;2023-02-16T02:38:01;101263.27;;;8.01;73.01
70916;BME280;58557;50.982;-3.222;2023-02-16T02:40:29;101258.42;;;8.05;74.08
70916;BME280;58557;50.982;-3.222;2023-02-16T02:42:53;101256.10;;;8.50;73.02
70916;BME280;58557;50.982;-3.222;2023-02-16T02:45:15;101245.59;;;8.13;73.47
70916;BME280;58557;50.982;-3.222;2023-02-16T02:47:38;101239.92;;;8.17;74.39
70916;BME280;58557;50.982;-3.222;2023-02-16T02:52:28;101235.60;;;8.84;70.52
70916;BME280;58557;50.982;-3.222;2023-02-16T02:54:54;101242.29;;;9.13;70.63
70916;BME280;58557;50.982;-3.222;2023-02-16T02:57:23;101232.02;;;8.03;73.89
70916;BME280;58557;50.982;-3.222;2023-02-16T02:59:48;101225.95;;;9.05;70.56
70916;BME280;58557;50.982;-3.222;2023-02-16T03:02:11;101217.61;;;8.11;71.89
70916;BME280;58557;50.982;-3.222;2023-02-16T03:04:36;101218.93;;;8.48;71.68
70916;BME280;58557;50.982;-3.222;2023-02-16T03:07:02;101215.08;;;8.68;71.70
70916;BME280;58557;50.982;-3.222;2023-02-16T03:09:27;101215.30;;;8.80;71.48
70916;BME280;58557;50.982;-3.222;2023-02-16T03:11:53;101205.50;;;8.54;72.04
70916;BME280;58557;50.982;-3.222;2023-02-16T03:14:21;101189.35;;;8.13;73.35
70916;BME280;58557;50.982;-3.222;2023-02-16T03:16:44;101179.79;;;8.41;72.94
70916;BME280;58557;50.982;-3.222;2023-02-16T03:19:10;101174.15;;;7.77;74.39
70916;BME280;58557;50.982;-3.222;2023-02-16T03:21:34;101170.33;;;8.70;72.60
70916;BME280;58557;50.982;-3.222;2023-02-16T03:24:02;101162.94;;;8.26;73.12
70916;BME280;58557;50.982;-3.222;2023-02-16T03:26:26;101160.03;;;9.26;69.45
70916;BME280;58557;50.982;-3.222;2023-02-16T03:28:52;101163.61;;;8.51;73.03
70916;BME280;58557;50.982;-3.222;2023-02-16T03:31:19;101165.10;;;8.71;73.95
70916;BME280;58557;50.982;-3.222;2023-02-16T03:33:42;101166.23;;;7.82;76.20
70916;BME280;58557;50.982;-3.222;2023-02-16T03:36:08;101160.51;;;8.40;75.09
70916;BME280;58557;50.982;-3.222;2023-02-16T03:38:33;101151.25;;;8.49;75.70
70916;BME280;58557;50.982;-3.222;2023-02-16T03:40:58;101146.53;;;8.32;76.54
70916;BME280;58557;50.982;-3.222;2023-02-16T03:43:25;101143.36;;;8.10;77.09
70916;BME280;58557;50.982;-3.222;2023-02-16T03:45:50;101138.34;;;8.61;76.16
70916;BME280;58557;50.982;-3.222;2023-02-16T03:48:16;101129.50;;;8.20;78.31
70916;BME280;58557;50.982;-3.222;2023-02-16T03:50:41;101123.53;;;8.01;80.59
70916;BME280;58557;50.982;-3.222;2023-02-16T03:53:07;101127.20;;;8.05;80.46
70916;BME280;58557;50.982;-3.222;2023-02-16T03:55:32;101125.29;;;7.92;82.91
70916;BME280;58557;50.982;-3.222;2023-02-16T03:57:57;101124.71;;;7.54;85.18
70916;BME280;58557;50.982;-3.222;2023-02-16T04:00:23;101111.22;;;7.99;81.33
70916;BME280;58557;50.982;-3.222;2023-02-16T04:02:48;101112.14;;;7.45;85.77
70916;BME280;58557;50.982;-3.222;2023-02-16T04:05:13;101102.22;;;7.29;87.62
70916;BME280;58557;50.982;-3.222;2023-02-16T04:07:39;101103.90;;;7.53;87.56
70916;BME280;58557;50.982;-3.222;2023-02-16T04:10:05;101100.79;;;7.01;88.25
70916;BME280;58557;50.982;-3.222;2023-02-16T04:12:30;101100.63;;;7.26;89.86
70916;BME280;58557;50.982;-3.222;2023-02-16T04:14:55;101095.59;;;7.12;89.13
70916;BME280;58557;50.982;-3.222;2023-02-16T04:17:21;101093.56;;;7.39;86.99
70916;BME280;58557;50.982;-3.222;2023-02-16T04:19:46;101091.52;;;8.11;85.60
70916;BME280;58557;50.982;-3.222;2023-02-16T04:22:12;101085.56;;;7.93;86.97
70916;BME280;58557;50.982;-3.222;2023-02-16T04:24:36;101087.17;;;7.79;87.30
70916;BME280;58557;50.982;-3.222;2023-02-16T04:27:03;101085.47;;;8.01;86.64
70916;BME280;58557;50.982;-3.222;2023-02-16T04:29:27;101091.54;;;7.79;88.26
70916;BME280;58557;50.982;-3.222;2023-02-16T04:31:53;101092.01;;;7.58;89.50
70916;BME280;58557;50.982;-3.222;2023-02-16T04:34:19;101083.73;;;7.94;88.55
70916;BME280;58557;50.982;-3.222;2023-02-16T04:36:45;101079.54;;;7.67;89.97
70916;BME280;58557;50.982;-3.222;2023-02-16T04:39:11;101079.10;;;8.00;87.52
70916;BME280;58557;50.982;-3.222;2023-02-16T04:41:36;101078.50;;;7.86;88.75
70916;BME280;58557;50.982;-3.222;2023-02-16T04:44:02;101069.15;;;8.45;87.23
70916;BME280;58557;50.982;-3.222;2023-02-16T04:46:27;101065.48;;;7.53;90.90
70916;BME280;58557;50.982;-3.222;2023-02-16T04:48:53;101060.51;;;7.38;92.06
70916;BME280;58557;50.982;-3.222;2023-02-16T04:51:19;101068.33;;;7.04;94.18
70916;BME280;58557;50.982;-3.222;2023-02-16T04:53:44;101068.52;;;6.86;96.15
70916;BME280;58557;50.982;-3.222;2023-02-16T04:56:10;101072.58;;;7.37;95.22
70916;BME280;58557;50.982;-3.222;2023-02-16T04:58:35;101080.85;;;7.40;95.31
70916;BME280;58557;50.982;-3.222;2023-02-16T05:01:01;101083.55;;;7.71;94.31
70916;BME280;58557;50.982;-3.222;2023-02-16T05:03:26;101073.82;;;7.60;94.23
70916;BME280;58557;50.982;-3.222;2023-02-16T05:05:52;101071.47;;;7.70;93.91
70916;BME280;58557;50.982;-3.222;2023-02-16T05:08:17;101088.13;;;7.62;94.53
70916;BME280;58557;50.982;-3.222;2023-02-16T05:10:42;101091.49;;;7.87;94.35
70916;BME280;58557;50.982;-3.222;2023-02-16T05:13:09;101085.79;;;7.53;95.91
70916;BME280;58557;50.982;-3.222;2023-02-16T05:15:33;101082.34;;;7.15;97.09
70916;BME280;58557;50.982;-3.222;2023-02-16T05:17:58;101072.58;;;7.22;98.39
70916;BME280;58557;50.982;-3.222;2023-02-16T05:20:24;101073.30;;;7.43;97.90
70916;BME280;58557;50.982;-3.222;2023-02-16T05:22:49;101072.48;;;7.31;98.55
70916;BME280;58557;50.982;-3.222;2023-02-16T05:25:15;101077.12;;;7.21;98.03
70916;BME280;58557;50.982;-3.222;2023-02-16T05:27:40;101070.46;;;7.65;97.71
70916;BME280;58557;50.982;-3.222;2023-02-16T05:30:06;101069.95;;;7.27;98.59
70916;BME280;58557;50.982;-3.222;2023-02-16T05:32:31;101070.70;;;7.36;98.56
70916;BME280;58557;50.982;-3.222;2023-02-16T05:34:55;101076.46;;;7.10;99.21
70916;BME280;58557;50.982;-3.222;2023-02-16T05:37:21;101081.57;;;7.73;97.00
70916;BME280;58557;50.982;-3.222;2023-02-16T05:39:47;101084.81;;;7.99;96.94
70916;BME280;58557;50.982;-3.222;2023-02-16T05:42:12;101082.23;;;7.82;97.17
70916;BME280;58557;50.982;-3.222;2023-02-16T05:44:38;101078.93;;;7.90;98.27
70916;BME280;58557;50.982;-3.222;2023-02-16T05:47:03;101075.66;;;7.66;98.54
70916;BME280;58557;50.982;-3.222;2023-02-16T05:49:29;101062.90;;;7.98;97.01
70916;BME280;58557;50.982;-3.222;2023-02-16T05:51:54;101064.76;;;7.91;97.00
70916;BME280;58557;50.982;-3.222;2023-02-16T05:54:20;101054.27;;;8.10;96.61
70916;BME280;58557;50.982;-3.222;2023-02-16T05:56:46;101053.92;;;8.57;94.35
70916;BME280;58557;50.982;-3.222;2023-02-16T05:59:11;101050.99;;;7.91;95.92
70916;BME280;58557;50.982;-3.222;2023-02-16T06:01:36;101049.40;;;8.08;94.88
70916;BME280;58557;50.982;-3.222;2023-02-16T06:04:02;101045.49;;;8.51;94.87
70916;BME280;58557;50.982;-3.222;2023-02-16T06:06:28;101042.32;;;8.01;97.01
70916;BME280;58557;50.982;-3.222;2023-02-16T06:08:54;101032.54;;;8.62;94.71
70916;BME280;58557;50.982;-3.222;2023-02-16T06:11:20;101039.24;;;9.09;92.58
70916;BME280;58557;50.982;-3.222;2023-02-16T06:13:45;101036.26;;;9.18;91.25
70916;BME280;58557;50.982;-3.222;2023-02-16T06:16:10;101037.98;;;8.83;92.74
70916;BME280;58557;50.982;-3.222;2023-02-16T06:18:36;101047.68;;;8.40;92.48
70916;BME280;58557;50.982;-3.222;2023-02-16T06:21:01;101052.00;;;9.59;88.36
70916;BME280;58557;50.982;-3.222;2023-02-16T06:23:27;101050.64;;;9.10;91.00
70916;BME280;58557;50.982;-3.222;2023-02-16T06:25:53;101058.30;;;9.70;90.28
70916;BME280;58557;50.982;-3.222;2023-02-16T06:28:19;101056.56;;;8.89;89.44
70916;BME280;58557;50.982;-3.222;2023-02-16T06:30:44;101060.41;;;9.53;87.26
70916;BME280;58557;50.982;-3.222;2023-02-16T06:33:10;101062.68;;;9.16;88.65
70916;BME280;58557;50.982;-3.222;2023-02-16T06:35:36;101066.37;;;9.20;89.27
70916;BME280;58557;50.982;-3.222;2023-02-16T06:38:02;101066.44;;;8.73;90.54
70916;BME280;58557;50.982;-3.222;2023-02-16T06:40:28;101068.93;;;9.97;86.41
70916;BME280;58557;50.982;-3.222;2023-02-16T06:42:54;101067.52;;;8.64;91.70
70916;BME280;58557;50.982;-3.222;2023-02-16T06:45:19;101074.60;;;9.31;88.21
70916;BME280;58557;50.982;-3.222;2023-02-16T06:47:45;101080.22;;;9.17;87.68
70916;BME280;58557;50.982;-3.222;2023-02-16T06:50:11;101090.58;;;9.10;89.03
70916;BME280;58557;50.982;-3.222;2023-02-16T06:52:37;101082.27;;;9.16;89.15
70916;BME280;58557;50.982;-3.222;2023-02-16T06:55:03;101088.88;;;9.43;88.18
70916;BME280;58557;50.982;-3.222;2023-02-16T06:57:28;101093.23;;;9.28;87.85
70916;BME280;58557;50.982;-3.222;2023-02-16T06:59:54;101091.56;;;9.36;85.37
70916;BME280;58557;50.982;-3.222;2023-02-16T07:02:20;101094.58;;;10.26;83.44
70916;BME280;58557;50.982;-3.222;2023-02-16T07:04:46;101093.55;;;9.90;84.32
70916;BME280;58557;50.982;-3.222;2023-02-16T07:07:12;101095.54;;;9.60;85.31
70916;BME280;58557;50.982;-3.222;2023-02-16T07:09:38;101092.26;;;9.04;88.94
70916;BME280;58557;50.982;-3.222;2023-02-16T07:12:05;101086.28;;;9.31;88.82
70916;BME280;58557;50.982;-3.222;2023-02-16T07:14:30;101086.33;;;9.39;85.12
70916;BME280;58557;50.982;-3.222;2023-02-16T07:16:55;101095.15;;;9.37;86.84
70916;BME280;58557;50.982;-3.222;2023-02-16T07:19:21;101093.36;;;9.33;88.33
70916;BME280;58557;50.982;-3.222;2023-02-16T07:21:47;101098.73;;;10.49;84.87
70916;BME280;58557;50.982;-3.222;2023-02-16T07:24:12;101111.62;;;9.61;87.38
70916;BME280;58557;50.982;-3.222;2023-02-16T07:26:38;101115.86;;;9.59;85.82
70916;BME280;58557;50.982;-3.222;2023-02-16T07:29:04;101112.91;;;10.33;84.01
70916;BME280;58557;50.982;-3.222;2023-02-16T07:31:30;101114.39;;;9.99;86.24
70916;BME280;58557;50.982;-3.222;2023-02-16T07:33:56;101109.96;;;8.82;90.47
70916;BME280;58557;50.982;-3.222;2023-02-16T07:36:21;101116.64;;;9.07;90.58
70916;BME280;58557;50.982;-3.222;2023-02-16T07:38:46;101122.41;;;9.47;88.15
70916;BME280;58557;50.982;-3.222;2023-02-16T07:41:12;101130.47;;;10.16;87.72
70916;BME280;58557;50.982;-3.222;2023-02-16T07:43:38;101130.99;;;10.22;85.53
70916;BME280;58557;50.982;-3.222;2023-02-16T07:46:04;101128.12;;;10.09;85.94
70916;BME280;58557;50.982;-3.222;2023-02-16T07:48:30;101127.27;;;10.65;83.71
70916;BME280;58557;50.982;-3.222;2023-02-16T07:50:56;101132.39;;;10.26;84.18
70916;BME280;58557;50.982;-3.222;2023-02-16T07:53:21;101138.02;;;10.04;85.01
70916;BME280;58557;50.982;-3.222;2023-02-16T07:55:47;101137.69;;;10.51;84.93
70916;BME280;58557;50.982;-3.222;2023-02-16T07:58:14;101145.28;;;10.62;85.38
70916;BME280;58557;50.982;-3.222;2023-02-16T08:00:39;101151.76;;;10.06;84.92
70916;BME280;58557;50.982;-3.222;2023-02-16T08:03:04;101156.85;;;10.38;85.17
70916;BME280;58557;50.982;-3.222;2023-02-16T08:05:30;101153.20;;;10.94;82.87
70916;BME280;58557;50.982;-3.222;2023-02-16T08:07:56;101152.75;;;10.81;82.46
70916;BME280;58557;50.982;-3.222;2023-02-16T08:10:22;101152.04;;;11.07;81.44
70916;BME280;58557;50.982;-3.222;2023-02-16T08:12:48;101145.17;;;10.93;81.99
70916;BME280;58557;50.982;-3.222;2023-02-16T08:15:13;101146.62;;;9.93;85.73
70916;BME280;58557;50.982;-3.222;2023-02-16T08:17:39;101137.02;;;11.40;80.93
70916;BME280;58557;50.982;-3.222;2023-02-16T08:20:08;101133.47;;;11.35;81.21
70916;BME280;58557;50.982;-3.222;2023-02-16T08:22:31;101136.12;;;11.63;80.44
70916;BME280;58557;50.982;-3.222;2023-02-16T08:24:57;101138.55;;;11.82;78.06
70916;BME280;58557;50.982;-3.222;2023-02-16T08:27:22;101141.25;;;12.52;76.63
70916;BME280;58557;50.982;-3.222;2023-02-16T08:29:48;101138.50;;;11.23;80.77
70916;BME280;58557;50.982;-3.222;2023-02-16T08:32:14;101136.03;;;11.34;80.97
70916;BME280;58557;50.982;-3.222;2023-02-16T08:34:40;101129.79;;;10.64;81.57
70916;BME280;58557;50.982;-3.222;2023-02-16T08:37:06;101138.13;;;11.89;79.32
70916;BME280;58557;50.982;-3.222;2023-02-16T08:39:32;101135.62;;;11.13;81.18
70916;BME280;58557;50.982;-3.222;2023-02-16T08:41:58;101136.24;;;11.38;80.62
70916;BME280;58557;50.982;-3.222;2023-02-16T08:44:24;101140.72;;;11.83;80.59
70916;BME280;58557;50.982;-3.222;2023-02-16T08:46:50;101142.12;;;11.56;81.95
70916;BME280;58557;50.982;-3.222;2023-02-16T08:49:16;101140.56;;;11.64;79.08
70916;BME280;58557;50.982;-3.222;2023-02-16T08:51:42;101146.89;;;12.78;76.25
70916;BME280;58557;50.982;-3.222;2023-02-16T08:54:06;101150.41;;;13.45;73.74
70916;BME280;58557;50.982;-3.222;2023-02-16T08:56:32;101151.18;;;13.50;72.23
70916;BME280;58557;50.982;-3.222;2023-02-16T08:58:58;101158.22;;;12.86;74.18
70916;BME280;58557;50.982;-3.222;2023-02-16T09:01:23;101162.19;;;13.78;70.44
70916;BME280;58557;50.982;-3.222;2023-02-16T09:03:49;101162.67;;;12.86;71.91
70916;BME280;58557;50.982;-3.222;2023-02-16T09:06:17;101165.00;;;12.66;72.38
70916;BME280;58557;50.982;-3.222;2023-02-16T09:08:40;101170.08;;;13.10;73.32
70916;BME280;58557;50.982;-3.222;2023-02-16T09:11:08;101177.07;;;14.24;70.34
70916;BME280;58557;50.982;-3.222;2023-02-16T09:13:32;101188.13;;;12.91;74.25
70916;BME280;58557;50.982;-3.222;2023-02-16T09:16:02;101193.12;;;12.82;75.04
70916;BME280;58557;50.982;-3.222;2023-02-16T09:18:23;101193.90;;;12.24;77.01
70916;BME280;58557;50.982;-3.222;2023-02-16T09:20:49;101188.77;;;13.49;74.09
70916;BME280;58557;50.982;-3.222;2023-02-16T09:23:15;101189.56;;;14.15;70.58
70916;BME280;58557;50.982;-3.222;2023-02-16T09:25:40;101187.57;;;13.76;70.54
70916;BME280;58557;50.982;-3.222;2023-02-16T09:28:06;101185.62;;;14.85;67.55
70916;BME280;58557;50.982;-3.222;2023-02-16T09:30:32;101181.15;;;12.97;73.19
70916;BME280;58557;50.982;-3.222;2023-02-16T09:32:58;101180.39;;;13.51;71.91
70916;BME280;58557;50.982;-3.222;2023-02-16T09:35:23;101183.51;;;14.03;70.63
70916;BME280;58557;50.982;-3.222;2023-02-16T09:37:49;101179.89;;;12.26;75.82
70916;BME280;58557;50.982;-3.222;2023-02-16T09:40:15;101180.43;;;12.69;74.94
70916;BME280;58557;50.982;-3.222;2023-02-16T09:42:52;101185.98;;;14.37;69.63
70916;BME280;58557;50.982;-3.222;2023-02-16T09:45:09;101186.76;;;13.66;73.04
70916;BME280;58557;50.982;-3.222;2023-02-16T09:47:35;101190.98;;;12.58;75.39
70916;BME280;58557;50.982;-3.222;2023-02-16T09:49:59;101190.58;;;12.97;75.22
70916;BME280;58557;50.982;-3.222;2023-02-16T09:52:29;101186.14;;;13.02;74.89
70916;BME280;58557;50.982;-3.222;2023-02-16T09:54:52;101192.66;;;12.70;76.95
70916;BME280;58557;50.982;-3.222;2023-02-16T09:57:20;101199.69;;;12.61;77.48
70916;BME280;58557;50.982;-3.222;2023-02-16T09:59:46;101193.70;;;13.30;75.49
70916;BME280;58557;50.982;-3.222;2023-02-16T10:02:21;101193.32;;;13.75;72.61
70916;BME280;58557;50.982;-3.222;2023-02-16T10:04:38;101195.21;;;12.40;78.10
70916;BME280;58557;50.982;-3.222;2023-02-16T10:07:09;101206.98;;;11.19;83.28
70916;BME280;58557;50.982;-3.222;2023-02-16T10:09:25;101213.12;;;11.69;80.15
70916;BME280;58557;50.982;-3.222;2023-02-16T10:11:52;101222.88;;;12.99;77.81
70916;BME280;58557;50.982;-3.222;2023-02-16T10:14:21;101237.98;;;12.19;77.63
70916;BME280;58557;50.982;-3.222;2023-02-16T10:16:45;101231.30;;;12.89;78.67
70916;BME280;58557;50.982;-3.222;2023-02-16T10:19:14;101223.71;;;13.93;72.08
70916;BME280;58557;50.982;-3.222;2023-02-16T10:21:32;101224.38;;;14.29;71.49
70916;BME280;58557;50.982;-3.222;2023-02-16T10:24:02;101244.83;;;15.20;66.89
70916;BME280;58557;50.982;-3.222;2023-02-16T10:26:29;101249.45;;;13.38;70.96
70916;BME280;58557;50.982;-3.222;2023-02-16T10:28:51;101250.90;;;14.06;68.72
70916;BME280;58557;50.982;-3.222;2023-02-16T10:31:22;101260.08;;;14.35;69.01
70916;BME280;58557;50.982;-3.222;2023-02-16T10:33:42;101267.65;;;11.81;75.98
70916;BME280;58557;50.982;-3.222;2023-02-16T10:36:14;101271.31;;;13.44;70.30
70916;BME280;58557;50.982;-3.222;2023-02-16T10:38:40;101271.22;;;11.96;76.35
70916;BME280;58557;50.982;-3.222;2023-02-16T10:41:03;101271.29;;;13.03;72.22
70916;BME280;58557;50.982;-3.222;2023-02-16T10:43:33;101277.94;;;12.46;73.12
70916;BME280;58557;50.982;-3.222;2023-02-16T10:45:51;101283.70;;;11.87;77.03
70916;BME280;58557;50.982;-3.222;2023-02-16T10:48:15;101283.54;;;12.56;74.49
70916;BME280;58557;50.982;-3.222;2023-02-16T10:50:43;101282.73;;;11.92;76.80
70916;BME280;58557;50.982;-3.222;2023-02-16T10:53:12;101284.49;;;12.61;75.21
70916;BME280;58557;50.982;-3.222;2023-02-16T10:55:32;101285.33;;;13.08;72.22
70916;BME280;58557;50.982;-3.222;2023-02-16T10:58:00;101284.14;;;13.57;71.84
70916;BME280;58557;50.982;-3.222;2023-02-16T11:00:32;101281.16;;;13.84;69.97
70916;BME280;58557;50.982;-3.222;2023-02-16T11:02:49;101284.87;;;11.83;75.30
70916;BME280;58557;50.982;-3.222;2023-02-16T11:05:31;101293.46;;;13.34;70.91
70916;BME280;58557;50.982;-3.222;2023-02-16T11:07:51;101289.05;;;13.06;70.24
70916;BME280;58557;50.982;-3.222;2023-02-16T11:10:19;101301.37;;;13.42;69.95
70916;BME280;58557;50.982;-3.222;2023-02-16T11:12:34;101292.44;;;12.75;72.18
70916;BME280;58557;50.982;-3.222;2023-02-16T11:15:01;101298.02;;;12.23;74.11
70916;BME280;58557;50.982;-3.222;2023-02-16T11:17:24;101297.67;;;11.93;75.50
70916;BME280;58557;50.982;-3.222;2023-02-16T11:19:52;101294.77;;;12.78;73.90
70916;BME280;58557;50.982;-3.222;2023-02-16T11:22:23;101301.12;;;12.63;72.80
70916;BME280;58557;50.982;-3.222;2023-02-16T11:24:40;101298.54;;;12.65;72.04
70916;BME280;58557;50.982;-3.222;2023-02-16T11:27:13;101305.03;;;13.62;69.55
70916;BME280;58557;50.982;-3.222;2023-02-16T11:29:32;101302.49;;;12.11;74.59
70916;BME280;58557;50.982;-3.222;2023-02-16T11:31:58;101310.09;;;12.25;73.29
70916;BME280;58557;50.982;-3.222;2023-02-16T11:34:30;101301.21;;;12.23;72.07
70916;BME280;58557;50.982;-3.222;2023-02-16T11:36:49;101301.98;;;12.41;73.16
70916;BME280;58557;50.982;-3.222;2023-02-16T11:39:19;101314.82;;;12.05;75.77
70916;BME280;58557;50.982;-3.222;2023-02-16T11:41:43;101315.71;;;12.11;75.23
70916;BME280;58557;50.982;-3.222;2023-02-16T11:44:17;101314.43;;;11.30;78.28
70916;BME280;58557;50.982;-3.222;2023-02-16T11:46:37;101302.71;;;12.20;74.87
70916;BME280;58557;50.982;-3.222;2023-02-16T11:51:32;101309.18;;;12.90;70.26
70916;BME280;58557;50.982;-3.222;2023-02-16T11:53:57;101307.60;;;13.59;68.96
70916;BME280;58557;50.982;-3.222;2023-02-16T11:56:21;101308.75;;;13.46;70.35
70916;BME280;58557;50.982;-3.222;2023-02-16T11:58:40;101301.63;;;12.44;71.33
70916;BME280;58557;50.982;-3.222;2023-02-16T12:01:16;101305.78;;;11.47;75.20
70916;BME280;58557;50.982;-3.222;2023-02-16T12:03:49;101313.80;;;11.03;76.17
70916;BME280;58557;50.982;-3.222;2023-02-16T12:06:08;101302.00;;;12.37;71.44
70916;BME280;58557;50.982;-3.222;2023-02-16T12:08:33;101302.26;;;12.56;71.02
70916;BME280;58557;50.982;-3.222;2023-02-16T12:11:00;101300.00;;;12.66;71.22
70916;BME280;58557;50.982;-3.222;2023-02-16T12:13:20;101298.45;;;12.44;71.88
70916;BME280;58557;50.982;-3.222;2023-02-16T12:15:45;101295.85;;;11.82;71.73
70916;BME280;58557;50.982;-3.222;2023-02-16T12:18:16;101300.46;;;11.16;74.48
70916;BME280;58557;50.982;-3.222;2023-02-16T12:20:44;101306.29;;;12.89;69.98
70916;BME280;58557;50.982;-3.222;2023-02-16T12:23:06;101310.27;;;12.48;70.91
70916;BME280;58557;50.982;-3.222;2023-02-16T12:25:27;101303.34;;;11.99;71.87
70916;BME280;58557;50.982;-3.222;2023-02-16T12:27:53;101312.01;;;12.12;74.13
70916;BME280;58557;50.982;-3.222;2023-02-16T12:30:25;101315.22;;;11.15;78.31
70916;BME280;58557;50.982;-3.222;2023-02-16T12:32:49;101308.51;;;10.78;78.03
70916;BME280;58557;50.982;-3.222;2023-02-16T12:35:17;101316.99;;;11.38;76.31
70916;BME280;58557;50.982;-3.222;2023-02-16T12:37:36;101315.65;;;10.37;80.37
70916;BME280;58557;50.982;-3.222;2023-02-16T12:40:06;101319.48;;;11.23;79.41
70916;BME280;58557;50.982;-3.222;2023-02-16T12:42:40;101312.70;;;12.08;75.32